Time;durP1;ratioP1;P1;durP2;ratioP2;P2;SDS_P1;SDS_P2;PMS_P1;PMS_P2;Temp;Humidity;BMP_temperature;BMP_pressure;BME280_temperature;BME280_humidity;BME280_pressure;Samples;Min_cycle;Max_cycle;Signal;HPM_P1;HPM_P2
2022/08/25 00:00:59;;;;;;;5.57;3.97;;;20.60;99.90;;;;;;4589252;19;20010;-28
2022/08/25 00:02:30;;;;;;;4.60;3.78;;;20.60;99.90;;;;;;4589524;19;20017;-25
2022/08/25 00:04:02;;;;;;;4.78;3.92;;;20.60;99.90;;;;;;4589256;19;20410;-26
2022/08/25 00:05:33;;;;;;;5.18;3.80;;;20.60;99.90;;;;;;4587219;19;20017;-27
2022/08/25 00:07:04;;;;;;;5.82;3.97;;;20.60;99.90;;;;;;4589037;19;20015;-27
2022/08/25 00:08:36;;;;;;;5.32;3.40;;;20.60;99.90;;;;;;4589130;19;20018;-25
2022/08/25 00:10:08;;;;;;;5.15;3.97;;;20.60;99.90;;;;;;4588067;19;20301;-28
2022/08/25 00:11:39;;;;;;;6.45;4.18;;;20.60;99.90;;;;;;4587966;19;20345;-25
2022/08/25 00:13:11;;;;;;;5.88;3.83;;;20.60;99.90;;;;;;4588988;19;20019;-29
2022/08/25 00:14:42;;;;;;;6.70;4.10;;;20.60;99.90;;;;;;4588272;19;20018;-25
2022/08/25 00:16:16;;;;;;;5.07;3.22;;;20.60;99.90;;;;;;4589032;19;20039;-25
2022/08/25 00:17:48;;;;;;;4.60;3.50;;;20.60;99.90;;;;;;4587821;19;20372;-26
2022/08/25 00:19:25;;;;;;;4.32;3.40;;;20.60;99.90;;;;;;4588855;19;20014;-25
2022/08/25 00:20:56;;;;;;;5.82;4.15;;;20.60;99.90;;;;;;4589347;19;20332;-25
2022/08/25 00:22:28;;;;;;;6.90;3.95;;;20.60;99.90;;;;;;4588299;19;20338;-25
2022/08/25 00:24:01;;;;;;;4.68;4.10;;;20.60;99.90;;;;;;4588476;19;20010;-25
2022/08/25 00:25:32;;;;;;;5.53;3.80;;;20.60;99.90;;;;;;4589019;19;20014;-25
2022/08/25 00:27:03;;;;;;;6.53;3.78;;;20.60;99.90;;;;;;4588273;19;20009;-25
2022/08/25 00:28:35;;;;;;;5.75;4.18;;;20.50;99.90;;;;;;4588504;19;20022;-24
2022/08/25 00:30:07;;;;;;;4.90;4.00;;;20.60;99.90;;;;;;4589046;19;20019;-24
2022/08/25 00:31:38;;;;;;;6.00;4.15;;;20.50;99.90;;;;;;4587227;19;20701;-27
2022/08/25 00:33:10;;;;;;;6.75;4.07;;;20.50;99.90;;;;;;4588497;19;20015;-25
2022/08/25 00:34:42;;;;;;;4.65;3.97;;;20.60;99.90;;;;;;4587715;19;20030;-25
2022/08/25 00:36:14;;;;;;;5.97;4.32;;;20.50;99.90;;;;;;4588786;19;20014;-25
2022/08/25 00:37:45;;;;;;;6.18;3.50;;;20.50;99.90;;;;;;4588224;19;20019;-27
2022/08/25 00:39:16;;;;;;;4.28;3.80;;;20.50;99.90;;;;;;4589096;19;20110;-27
2022/08/25 00:41:04;;;;;;;4.65;3.60;;;20.50;99.90;;;;;;4587893;19;20476;-25
2022/08/25 00:42:36;;;;;;;5.38;3.83;;;20.50;99.90;;;;;;4588757;19;20037;-26
2022/08/25 00:44:09;;;;;;;5.05;3.85;;;20.50;99.90;;;;;;4587777;19;20021;-25
2022/08/25 00:45:40;;;;;;;4.70;3.35;;;20.50;99.90;;;;;;4588319;19;20010;-28
2022/08/25 00:47:12;;;;;;;5.55;3.97;;;20.50;99.90;;;;;;4588723;19;20391;-25
2022/08/25 00:48:43;;;;;;;6.13;3.80;;;20.50;99.90;;;;;;4588517;19;20010;-26
2022/08/25 00:50:14;;;;;;;;;;;20.40;99.90;;;;;;4588309;19;20015;-25
2022/08/25 00:51:52;;;;;;;5.45;4.15;;;20.50;99.90;;;;;;4588496;19;19947;-25
2022/08/25 00:53:23;;;;;;;5.18;3.60;;;20.40;99.90;;;;;;4587327;19;20019;-25
2022/08/25 00:55:18;;;;;;;5.38;4.38;;;20.40;99.90;;;;;;4586956;19;20011;-25
2022/08/25 00:56:50;;;;;;;7.40;5.53;;;20.40;99.90;;;;;;4586320;19;20017;-26
2022/08/25 00:58:24;;;;;;;8.07;5.60;;;20.40;99.90;;;;;;4586493;19;20033;-24
2022/08/25 00:59:56;;;;;;;9.93;7.47;;;20.40;99.90;;;;;;4586470;19;20015;-25
2022/08/25 01:01:27;;;;;;;9.02;6.25;;;20.40;99.90;;;;;;4586211;19;20015;-26
2022/08/25 01:02:58;;;;;;;8.13;4.65;;;20.40;99.90;;;;;;4586341;19;20483;-25
2022/08/25 01:04:29;;;;;;;4.82;4.32;;;20.40;99.90;;;;;;4586573;19;20020;-26
2022/08/25 01:06:01;;;;;;;4.88;4.35;;;20.30;99.90;;;;;;4586257;19;20015;-28
2022/08/25 01:07:32;;;;;;;5.35;4.57;;;20.30;99.90;;;;;;4586077;19;20018;-25
2022/08/25 01:09:04;;;;;;;6.20;4.75;;;20.30;99.90;;;;;;4586194;19;20042;-27
2022/08/25 01:10:36;;;;;;;7.80;5.38;;;20.30;99.90;;;;;;4586469;19;20010;-25
2022/08/25 01:12:07;;;;;;;5.40;4.70;;;20.30;99.90;;;;;;4586159;19;20078;-26
2022/08/25 01:13:44;;;;;;;;;;;20.30;99.90;;;;;;4586772;19;20117;-26
2022/08/25 01:15:15;;;;;;;6.75;5.18;;;20.30;99.90;;;;;;4586076;19;19921;-26
2022/08/25 01:16:46;;;;;;;6.43;5.03;;;20.30;99.90;;;;;;4586289;19;20046;-26
2022/08/25 01:18:18;;;;;;;6.60;5.55;;;20.20;99.90;;;;;;4590546;19;20579;-25
2022/08/25 01:19:49;;;;;;;6.88;5.18;;;20.20;99.90;;;;;;4590407;19;20075;-25
2022/08/25 01:21:20;;;;;;;6.10;4.70;;;20.20;99.90;;;;;;4590379;19;20037;-26
2022/08/25 01:22:51;;;;;;;5.85;4.47;;;20.20;99.90;;;;;;4590326;19;20014;-26
2022/08/25 01:24:23;;;;;;;5.20;4.40;;;20.20;99.90;;;;;;4590393;19;20086;-25
2022/08/25 01:26:14;;;;;;;5.78;4.60;;;20.20;99.90;;;;;;4590248;19;20031;-25
2022/08/25 01:27:45;;;;;;;5.47;4.68;;;20.20;99.90;;;;;;4590318;19;20011;-26
2022/08/25 01:29:24;;;;;;;6.97;5.20;;;20.20;99.90;;;;;;4590379;19;20444;-26
2022/08/25 01:30:55;;;;;;;5.70;4.43;;;20.20;99.90;;;;;;4590457;19;20074;-25
2022/08/25 01:32:26;;;;;;;5.65;4.70;;;20.20;99.90;;;;;;4590465;19;20017;-26
2022/08/25 01:33:57;;;;;;;5.53;4.60;;;20.20;99.90;;;;;;4590324;19;20085;-26
2022/08/25 01:35:28;;;;;;;6.45;4.50;;;20.20;99.90;;;;;;4591460;19;20479;-26
2022/08/25 01:37:00;;;;;;;5.22;4.25;;;20.20;99.90;;;;;;4591907;19;20028;-25
2022/08/25 01:38:31;;;;;;;7.28;4.57;;;20.10;99.90;;;;;;4589855;19;20070;-24
2022/08/25 01:40:03;;;;;;;5.10;4.38;;;20.10;99.90;;;;;;4592109;19;20483;-26
2022/08/25 01:41:47;;;;;;;7.57;5.20;;;20.20;99.90;;;;;;4589414;19;20022;-24
2022/08/25 01:43:35;;;;;;;5.38;4.05;;;20.10;99.90;;;;;;4591863;19;20021;-28
2022/08/25 01:45:07;;;;;;;5.82;4.35;;;20.10;99.90;;;;;;4590818;19;20027;-25
2022/08/25 01:46:38;;;;;;;;;;;20.10;99.90;;;;;;4592829;19;20006;-26
2022/08/25 01:48:09;;;;;;;6.82;4.20;;;20.10;99.90;;;;;;4592236;19;19917;-25
2022/08/25 01:49:41;;;;;;;;;;;20.10;99.90;;;;;;4591726;19;20047;-26
2022/08/25 01:51:14;;;;;;;5.80;4.00;;;20.10;99.90;;;;;;4591455;19;19938;-25
2022/08/25 01:52:53;;;;;;;4.88;4.30;;;20.10;99.90;;;;;;4591891;19;20010;-25
2022/08/25 01:54:24;;;;;;;6.45;4.55;;;20.10;99.90;;;;;;4590085;19;20018;-25
2022/08/25 01:56:00;;;;;;;4.82;3.92;;;20.10;99.90;;;;;;4590592;19;20014;-25
2022/08/25 01:57:31;;;;;;;5.18;4.15;;;20.10;99.90;;;;;;4591748;19;20113;-25
2022/08/25 01:59:03;;;;;;;5.65;4.45;;;20.10;99.90;;;;;;4591928;19;20007;-27
2022/08/25 02:00:34;;;;;;;6.57;4.40;;;20.10;99.90;;;;;;4591819;19;20017;-25
2022/08/25 02:02:05;;;;;;;7.65;4.95;;;20.10;99.90;;;;;;4591701;19;20029;-28
2022/08/25 02:03:39;;;;;;;5.65;3.75;;;20.10;99.90;;;;;;4591961;19;20082;-25
2022/08/25 02:05:12;;;;;;;5.45;4.07;;;20.00;99.90;;;;;;4591901;19;20007;-25
2022/08/25 02:06:44;;;;;;;5.50;4.00;;;20.00;99.90;;;;;;4590839;19;20006;-25
2022/08/25 02:08:15;;;;;;;6.32;4.03;;;20.00;99.90;;;;;;4590456;19;20515;-27
2022/08/25 02:09:46;;;;;;;4.72;3.80;;;20.00;99.90;;;;;;4591281;19;20015;-25
2022/08/25 02:11:17;;;;;;;8.00;4.32;;;20.00;99.90;;;;;;4591835;19;20007;-25
2022/08/25 02:12:49;;;;;;;6.68;3.42;;;20.00;99.90;;;;;;4591551;19;20021;-28
2022/08/25 02:14:21;;;;;;;6.30;3.70;;;20.00;99.90;;;;;;4589394;19;20409;-25
2022/08/25 02:15:53;;;;;;;5.82;4.45;;;20.00;99.90;;;;;;4590973;19;20022;-27
2022/08/25 02:17:24;;;;;;;6.88;3.88;;;20.00;99.90;;;;;;4590595;19;20013;-28
2022/08/25 02:18:55;;;;;;;5.28;4.43;;;20.00;99.90;;;;;;4591081;19;20022;-25
2022/08/25 02:20:26;;;;;;;;;;;19.90;99.90;;;;;;4592025;19;20015;-28
2022/08/25 02:21:58;;;;;;;5.40;4.20;;;19.90;99.90;;;;;;4591530;19;20265;-27
2022/08/25 02:23:29;;;;;;;4.80;3.83;;;19.90;99.90;;;;;;4591633;19;20078;-25
2022/08/25 02:25:00;;;;;;;5.35;4.15;;;20.00;99.90;;;;;;4590193;19;20025;-27
2022/08/25 02:26:32;;;;;;;4.45;3.40;;;19.90;99.90;;;;;;4590346;19;20014;-25
2022/08/25 02:28:03;;;;;;;4.63;3.70;;;19.90;99.90;;;;;;4590416;19;20395;-25
2022/08/25 02:29:36;;;;;;;5.70;4.63;;;19.90;99.90;;;;;;4590606;19;20025;-26
2022/08/25 02:31:07;;;;;;;6.80;5.05;;;19.90;99.90;;;;;;4590053;19;20018;-25
2022/08/25 02:32:39;;;;;;;6.10;4.25;;;19.90;99.90;;;;;;4590745;19;20027;-25
2022/08/25 02:34:10;;;;;;;5.07;3.60;;;19.90;99.90;;;;;;4590800;19;20018;-25
2022/08/25 02:35:41;;;;;;;5.35;3.95;;;19.90;99.90;;;;;;4590998;19;20027;-25
2022/08/25 02:37:12;;;;;;;5.60;3.95;;;19.90;99.90;;;;;;4590846;19;20017;-26
2022/08/25 02:38:44;;;;;;;4.88;4.10;;;19.90;99.90;;;;;;4590918;19;20404;-25
2022/08/25 02:40:16;;;;;;;6.57;5.05;;;19.90;99.90;;;;;;4589580;19;20103;-27
2022/08/25 02:41:47;;;;;;;6.28;4.55;;;19.90;99.90;;;;;;4590507;19;20014;-25
2022/08/25 02:43:18;;;;;;;5.82;5.15;;;19.90;99.90;;;;;;4590953;19;20352;-27
2022/08/25 02:44:49;;;;;;;5.50;4.70;;;19.90;99.90;;;;;;4591086;19;20003;-25
2022/08/25 02:46:21;;;;;;;6.00;4.35;;;19.90;99.90;;;;;;4591084;19;20018;-26
2022/08/25 02:47:52;;;;;;;6.53;4.55;;;19.90;99.90;;;;;;4590581;19;20033;-25
2022/08/25 02:49:23;;;;;;;6.38;4.80;;;19.80;99.90;;;;;;4590744;19;20053;-25
2022/08/25 02:50:55;;;;;;;;;;;19.80;99.90;;;;;;4591560;19;20038;-25
2022/08/25 02:52:26;;;;;;;5.45;4.95;;;19.80;99.90;;;;;;4589436;19;19928;-25
2022/08/25 02:53:58;;;;;;;5.65;4.90;;;19.80;99.90;;;;;;4589938;19;20499;-24
2022/08/25 02:55:29;;;;;;;7.28;5.28;;;19.80;99.90;;;;;;4590689;19;20010;-25
2022/08/25 02:57:00;;;;;;;6.10;4.90;;;19.80;99.90;;;;;;4590380;19;20025;-25
2022/08/25 02:58:32;;;;;;;5.97;5.20;;;19.80;99.90;;;;;;4589474;19;20022;-28
2022/08/25 03:00:03;;;;;;;6.28;5.30;;;19.80;99.90;;;;;;4589485;19;20074;-27
2022/08/25 03:01:34;;;;;;;;;;;19.80;99.90;;;;;;4590340;19;20007;-27
2022/08/25 03:03:06;;;;;;;6.60;5.60;;;19.70;99.90;;;;;;4590517;19;19951;-24
2022/08/25 03:04:37;;;;;;;6.15;4.80;;;19.80;99.90;;;;;;4589555;19;20540;-25
2022/08/25 03:06:11;;;;;;;6.07;4.68;;;19.70;99.90;;;;;;4590265;19;20010;-26
2022/08/25 03:07:42;;;;;;;6.72;5.03;;;19.70;99.90;;;;;;4589112;19;20022;-29
2022/08/25 03:09:13;;;;;;;6.20;4.82;;;19.70;99.90;;;;;;4590329;19;20021;-25
2022/08/25 03:10:44;;;;;;;5.78;5.05;;;19.70;99.90;;;;;;4590435;19;20018;-24
2022/08/25 03:12:15;;;;;;;5.55;4.63;;;19.70;99.90;;;;;;4590250;19;20013;-25
2022/08/25 03:13:49;;;;;;;6.47;5.07;;;19.70;99.90;;;;;;4589369;19;20014;-28
2022/08/25 03:15:21;;;;;;;6.75;5.20;;;19.70;99.90;;;;;;4589512;19;20535;-26
2022/08/25 03:16:52;;;;;;;6.78;5.63;;;19.70;99.90;;;;;;4588817;19;20077;-25
2022/08/25 03:18:23;;;;;;;6.95;6.15;;;19.60;99.90;;;;;;4589016;19;20380;-26
2022/08/25 03:19:54;;;;;;;6.70;5.95;;;19.60;99.90;;;;;;4589137;19;20034;-23
2022/08/25 03:21:26;;;;;;;8.88;6.53;;;19.60;99.90;;;;;;4589701;19;20085;-27
2022/08/25 03:22:57;;;;;;;8.85;7.32;;;19.60;99.90;;;;;;4590440;19;20598;-24
2022/08/25 03:24:28;;;;;;;12.63;10.20;;;19.70;99.90;;;;;;4589318;19;20031;-25
2022/08/25 03:27:56;;;;;;;7.88;7.07;;;19.70;99.90;;;;;;4587773;19;20017;-25
2022/08/25 03:29:30;;;;;;;8.65;7.57;;;19.70;99.90;;;;;;4587952;19;20590;-24
2022/08/25 03:31:01;;;;;;;9.43;7.35;;;19.70;99.90;;;;;;4587658;19;20031;-29
2022/08/25 03:32:32;;;;;;;9.27;8.15;;;19.70;99.90;;;;;;4588025;19;20009;-25
2022/08/25 03:34:04;;;;;;;9.85;8.00;;;19.70;99.90;;;;;;4587567;19;20025;-27
2022/08/25 03:35:35;;;;;;;12.30;8.95;;;19.70;99.90;;;;;;4587747;19;20102;-25
2022/08/25 03:37:07;;;;;;;10.52;7.78;;;19.70;99.90;;;;;;4587831;19;20013;-25
2022/08/25 03:38:38;;;;;;;9.43;8.50;;;19.60;99.90;;;;;;4586806;19;20026;-24
2022/08/25 03:40:11;;;;;;;8.30;7.40;;;19.70;99.90;;;;;;4585497;19;20128;-25
2022/08/25 03:41:42;;;;;;;8.57;7.55;;;19.70;99.90;;;;;;4587574;19;20066;-27
2022/08/25 03:43:13;;;;;;;9.48;8.52;;;19.70;99.90;;;;;;4587569;19;20011;-28
2022/08/25 03:44:44;;;;;;;9.07;8.15;;;19.70;99.90;;;;;;4587953;19;20011;-26
2022/08/25 03:46:19;;;;;;;;;;;19.70;99.90;;;;;;4588204;19;20024;-25
2022/08/25 03:47:50;;;;;;;8.57;7.78;;;19.70;99.90;;;;;;4587973;19;19919;-25
2022/08/25 03:49:22;;;;;;;9.07;8.18;;;19.70;99.90;;;;;;4588048;19;20010;-27
2022/08/25 03:50:53;;;;;;;7.93;7.22;;;19.70;99.90;;;;;;4589765;19;20026;-25
2022/08/25 03:52:25;;;;;;;;;;;19.70;99.90;;;;;;4590382;19;20017;-26
2022/08/25 03:53:57;;;;;;;9.75;8.15;;;19.70;99.90;;;;;;4588762;19;19915;-24
2022/08/25 03:55:28;;;;;;;10.25;8.88;;;19.70;99.90;;;;;;4589769;19;20021;-25
2022/08/25 03:56:59;;;;;;;8.75;7.95;;;19.70;99.90;;;;;;4589800;19;20109;-26
2022/08/25 03:58:31;;;;;;;9.38;8.45;;;19.70;99.90;;;;;;4589516;19;20011;-25
2022/08/25 04:00:05;;;;;;;9.02;8.13;;;19.70;99.90;;;;;;4589323;19;20010;-24
2022/08/25 04:01:37;;;;;;;9.18;8.27;;;19.70;99.90;;;;;;4589650;19;20018;-24
2022/08/25 04:03:08;;;;;;;9.27;8.30;;;19.70;99.90;;;;;;4589407;19;20039;-25
2022/08/25 04:04:39;;;;;;;9.27;8.32;;;19.70;99.90;;;;;;4589664;19;20014;-26
2022/08/25 04:06:10;;;;;;;8.27;7.47;;;19.70;99.90;;;;;;4591351;19;20011;-25
2022/08/25 04:07:41;;;;;;;9.93;8.95;;;19.70;99.90;;;;;;4590504;19;20023;-24
2022/08/25 04:09:12;;;;;;;8.90;8.05;;;19.70;99.90;;;;;;4589837;19;20070;-26
2022/08/25 04:10:44;;;;;;;10.18;8.20;;;19.70;99.90;;;;;;4590888;19;20108;-27
2022/08/25 04:12:15;;;;;;;8.70;7.80;;;19.70;99.90;;;;;;4590810;19;20010;-25
2022/08/25 04:13:46;;;;;;;9.15;8.25;;;19.70;99.90;;;;;;4591386;19;20032;-25
2022/08/25 04:15:17;;;;;;;9.32;8.35;;;19.70;99.90;;;;;;4589298;19;20021;-25
2022/08/25 04:16:49;;;;;;;9.30;8.30;;;19.70;99.90;;;;;;4588965;19;20025;-25
2022/08/25 04:18:20;;;;;;;8.73;7.93;;;19.70;99.90;;;;;;4589469;19;20006;-24
2022/08/25 04:19:51;;;;;;;9.13;8.30;;;19.70;99.90;;;;;;4587969;19;20011;-25
2022/08/25 04:21:22;;;;;;;9.32;8.43;;;19.70;99.90;;;;;;4588053;19;20333;-25
2022/08/25 04:22:54;;;;;;;;;;;19.80;99.90;;;;;;4588267;19;20051;-24
2022/08/25 04:24:25;;;;;;;9.27;8.38;;;19.80;99.90;;;;;;4588768;19;19970;-24
2022/08/25 04:25:56;;;;;;;9.63;8.68;;;19.70;99.90;;;;;;4587800;19;20334;-25
2022/08/25 04:27:27;;;;;;;10.00;9.00;;;19.70;99.90;;;;;;4588884;19;20496;-26
2022/08/25 04:29:00;;;;;;;9.65;8.70;;;19.80;99.90;;;;;;4589136;19;20022;-24
2022/08/25 04:30:31;;;;;;;9.93;8.98;;;19.70;99.90;;;;;;4588135;19;20472;-25
2022/08/25 04:32:02;;;;;;;10.35;9.25;;;19.70;99.90;;;;;;4588566;19;20018;-24
2022/08/25 04:33:34;;;;;;;9.70;8.75;;;19.80;99.90;;;;;;4588973;19;20030;-25
2022/08/25 04:35:06;;;;;;;9.27;8.35;;;19.80;99.90;;;;;;4587497;19;20002;-28
2022/08/25 04:36:37;;;;;;;11.95;9.52;;;19.80;99.90;;;;;;4588790;19;20398;-27
2022/08/25 04:38:08;;;;;;;10.25;9.25;;;19.80;99.90;;;;;;4587859;19;20037;-25
2022/08/25 04:39:39;;;;;;;11.27;10.15;;;19.80;99.90;;;;;;4588803;19;20015;-25
2022/08/25 04:41:11;;;;;;;;;;;19.80;99.90;;;;;;4588748;19;20007;-25
2022/08/25 04:42:43;;;;;;;10.38;9.38;;;19.80;99.90;;;;;;4588485;19;19932;-24
2022/08/25 04:44:14;;;;;;;10.55;9.43;;;19.80;99.90;;;;;;4587461;19;20353;-26
2022/08/25 04:45:46;;;;;;;10.32;9.35;;;19.80;99.90;;;;;;4588487;19;20010;-25
2022/08/25 04:47:17;;;;;;;10.32;8.90;;;19.80;99.90;;;;;;4588444;19;20015;-26
2022/08/25 04:48:49;;;;;;;10.20;9.10;;;19.80;99.90;;;;;;4587463;19;20246;-28
2022/08/25 04:50:20;;;;;;;11.45;10.25;;;19.80;99.90;;;;;;4587122;19;20481;-25
2022/08/25 04:51:51;;;;;;;10.15;9.25;;;19.80;99.90;;;;;;4588477;19;20019;-25
2022/08/25 04:53:22;;;;;;;10.77;9.68;;;19.80;99.90;;;;;;4593141;19;20006;-26
2022/08/25 04:54:54;;;;;;;11.13;10.02;;;19.80;99.90;;;;;;4591625;19;20062;-26
2022/08/25 05:01:41;;;;;;;10.70;9.63;;;19.90;99.90;;;;;;4592654;19;20070;-25
2022/08/25 05:03:13;;;;;;;11.57;10.30;;;19.90;99.90;;;;;;4591806;19;20015;-25
2022/08/25 05:04:44;;;;;;;11.63;10.38;;;19.90;99.90;;;;;;4592633;19;20503;-24
2022/08/25 05:06:15;;;;;;;11.98;10.88;;;19.90;99.90;;;;;;4593156;19;20051;-25
2022/08/25 05:07:46;;;;;;;12.68;11.52;;;19.90;99.90;;;;;;4592963;19;20025;-28
2022/08/25 05:09:17;;;;;;;12.30;11.10;;;19.90;99.90;;;;;;4591834;19;20010;-24
2022/08/25 05:10:49;;;;;;;12.27;11.00;;;19.90;99.90;;;;;;4591417;19;20524;-25
2022/08/25 05:12:21;;;;;;;10.32;9.32;;;19.90;99.90;;;;;;4591629;19;20490;-26
2022/08/25 05:13:53;;;;;;;11.48;10.38;;;19.90;99.90;;;;;;4591283;19;20022;-24
2022/08/25 05:17:15;;;;;;;11.43;10.25;;;19.90;99.90;;;;;;4591922;19;20013;-24
2022/08/25 05:18:46;;;;;;;10.85;9.85;;;19.90;99.90;;;;;;4592985;19;20019;-25
2022/08/25 05:20:17;;;;;;;12.70;11.52;;;19.90;99.90;;;;;;4590251;19;20022;-25
2022/08/25 05:21:48;;;;;;;11.30;10.30;;;19.90;99.90;;;;;;4590450;19;20011;-24
2022/08/25 05:23:21;;;;;;;10.75;9.73;;;19.90;99.90;;;;;;4590698;19;20081;-25
2022/08/25 05:24:52;;;;;;;12.18;10.93;;;19.90;99.90;;;;;;4590706;19;20007;-26
2022/08/25 05:26:24;;;;;;;11.07;9.98;;;19.80;99.90;;;;;;4590289;19;20078;-24
2022/08/25 05:27:56;;;;;;;11.95;10.18;;;19.90;99.90;;;;;;4590184;19;20027;-25
2022/08/25 05:29:27;;;;;;;10.90;10.00;;;19.90;99.90;;;;;;4590401;19;20010;-24
2022/08/25 05:30:59;;;;;;;10.52;9.63;;;19.90;99.90;;;;;;4590142;19;20015;-23
2022/08/25 05:32:31;;;;;;;10.65;9.65;;;19.90;99.90;;;;;;4590309;19;20038;-24
2022/08/25 05:34:08;;;;;;;10.68;9.68;;;19.90;99.90;;;;;;4589945;19;20069;-25
2022/08/25 05:35:39;;;;;;;12.18;10.90;;;19.90;99.90;;;;;;4590353;19;20507;-25
2022/08/25 05:37:10;;;;;;;10.45;9.45;;;19.90;99.90;;;;;;4590546;19;20019;-28
2022/08/25 05:38:42;;;;;;;11.60;10.48;;;19.90;99.90;;;;;;4588556;19;20021;-24
2022/08/25 05:40:13;;;;;;;10.35;9.35;;;19.90;99.90;;;;;;4589811;19;20015;-24
2022/08/25 05:41:44;;;;;;;12.68;11.48;;;19.90;99.90;;;;;;4590205;19;20550;-24
2022/08/25 05:43:15;;;;;;;10.80;9.73;;;19.90;99.90;;;;;;4589660;19;20034;-27
2022/08/25 05:44:46;;;;;;;10.20;9.27;;;19.90;99.90;;;;;;4590011;19;20384;-27
2022/08/25 05:46:18;;;;;;;11.13;9.85;;;19.90;99.90;;;;;;4591193;19;20015;-25
2022/08/25 05:47:50;;;;;;;;;;;19.90;99.90;;;;;;4589522;19;20017;-24
2022/08/25 05:49:23;;;;;;;11.50;10.40;;;19.90;99.90;;;;;;4588281;19;19919;-28
2022/08/25 05:50:58;;;;;;;10.85;9.75;;;19.90;99.90;;;;;;4591102;19;20014;-26
2022/08/25 05:52:29;;;;;;;10.82;9.82;;;19.90;99.90;;;;;;4592391;19;20010;-25
2022/08/25 05:54:00;;;;;;;10.95;9.95;;;19.90;99.90;;;;;;4591983;19;20482;-25
2022/08/25 05:55:33;;;;;;;12.48;11.18;;;19.90;99.90;;;;;;4591971;19;20479;-24
2022/08/25 05:57:05;;;;;;;11.82;10.73;;;19.90;99.90;;;;;;4592415;19;20007;-25
2022/08/25 05:58:37;;;;;;;11.43;10.32;;;19.90;99.90;;;;;;4590645;19;20442;-26
2022/08/25 06:00:09;;;;;;;11.77;10.70;;;19.90;99.90;;;;;;4592360;19;20015;-23
2022/08/25 06:03:38;;;;;;;13.82;10.88;;;20.00;99.90;;;;;;4591727;19;20014;-24
2022/08/25 06:05:15;;;;;;;11.60;10.38;;;19.90;99.90;;;;;;4591017;19;20022;-24
2022/08/25 06:06:47;;;;;;;11.50;10.43;;;20.00;99.90;;;;;;4591073;19;20022;-25
2022/08/25 06:08:18;;;;;;;10.70;9.65;;;20.00;99.90;;;;;;4590625;19;20046;-26
2022/08/25 06:09:50;;;;;;;11.55;10.45;;;20.00;99.90;;;;;;4590939;19;20358;-28
2022/08/25 06:11:21;;;;;;;12.23;11.13;;;20.00;99.90;;;;;;4590872;19;20014;-25
2022/08/25 06:12:52;;;;;;;11.30;10.20;;;20.00;99.90;;;;;;4590953;19;20025;-28
2022/08/25 06:14:24;;;;;;;12.05;10.88;;;20.00;99.90;;;;;;4589338;19;20014;-25
2022/08/25 06:15:58;;;;;;;;;;;20.00;99.90;;;;;;4589858;19;20018;-25
2022/08/25 06:17:29;;;;;;;11.95;10.80;;;20.00;99.90;;;;;;4589637;19;20391;-27
2022/08/25 06:19:00;;;;;;;12.55;11.35;;;20.00;99.90;;;;;;4591513;19;20049;-25
2022/08/25 06:20:32;;;;;;;12.18;11.07;;;20.00;99.90;;;;;;4591531;19;20011;-25
2022/08/25 06:22:03;;;;;;;12.88;11.63;;;20.10;99.90;;;;;;4591696;19;20051;-24
2022/08/25 06:23:36;;;;;;;11.93;10.88;;;20.10;99.90;;;;;;4591470;19;20031;-26
2022/08/25 06:25:08;;;;;;;11.55;10.45;;;20.00;99.90;;;;;;4592304;19;20010;-23
2022/08/25 06:26:42;;;;;;;13.10;11.90;;;20.10;99.90;;;;;;4591615;19;20098;-25
2022/08/25 06:28:13;;;;;;;12.38;11.27;;;20.00;99.90;;;;;;4590286;19;20018;-26
2022/08/25 06:29:44;;;;;;;13.30;12.10;;;20.10;99.90;;;;;;4590795;19;20028;-25
2022/08/25 06:31:15;;;;;;;12.07;10.82;;;20.10;99.90;;;;;;4590623;19;20464;-27
2022/08/25 06:32:48;;;;;;;14.00;11.57;;;20.10;99.90;;;;;;4590470;19;20014;-24
2022/08/25 06:34:19;;;;;;;12.60;11.30;;;20.10;99.90;;;;;;4588050;19;20017;-24
2022/08/25 06:35:53;;;;;;;12.98;11.60;;;20.10;99.90;;;;;;4589604;19;20045;-26
2022/08/25 06:37:24;;;;;;;15.23;13.68;;;20.10;99.90;;;;;;4588040;19;20009;-25
2022/08/25 06:38:55;;;;;;;15.43;13.95;;;20.10;99.90;;;;;;4590300;19;20006;-27
2022/08/25 06:40:27;;;;;;;14.20;12.90;;;20.10;99.90;;;;;;4590625;19;20018;-24
2022/08/25 06:41:58;;;;;;;;;;;20.10;99.90;;;;;;4592678;19;20557;-25
2022/08/25 06:43:32;;;;;;;14.07;12.80;;;20.10;99.90;;;;;;4590794;19;19911;-25
2022/08/25 06:45:04;;;;;;;13.80;12.50;;;20.10;99.90;;;;;;4590677;19;20010;-25
2022/08/25 06:46:35;;;;;;;15.07;13.60;;;20.00;99.90;;;;;;4589816;19;20137;-24
2022/08/25 06:48:06;;;;;;;14.15;12.95;;;20.10;99.90;;;;;;4590831;19;20007;-27
2022/08/25 06:49:39;;;;;;;13.68;12.50;;;20.10;99.90;;;;;;4590614;19;20018;-24
2022/08/25 06:51:13;;;;;;;13.80;12.50;;;20.10;99.90;;;;;;4590713;19;20046;-25
2022/08/25 06:52:44;;;;;;;16.17;14.77;;;20.10;99.90;;;;;;4590418;19;20361;-27
2022/08/25 06:54:16;;;;;;;15.65;14.23;;;20.10;99.90;;;;;;4590575;19;20030;-27
2022/08/25 06:55:55;;;;;;;15.57;14.07;;;20.10;99.90;;;;;;4590207;19;20105;-25
2022/08/25 06:57:26;;;;;;;16.17;14.63;;;20.10;99.90;;;;;;4590657;19;20070;-24
2022/08/25 06:58:59;;;;;;;16.50;14.80;;;20.10;99.90;;;;;;4590634;19;20024;-28
2022/08/25 07:00:30;;;;;;;15.95;14.45;;;20.10;99.90;;;;;;4588217;19;20011;-25
2022/08/25 07:02:01;;;;;;;16.77;15.20;;;20.10;99.90;;;;;;4589767;19;20019;-28
2022/08/25 07:03:32;;;;;;;15.68;14.25;;;20.10;99.90;;;;;;4589517;19;20092;-25
2022/08/25 07:05:05;;;;;;;17.33;15.73;;;20.10;99.90;;;;;;4589974;19;20518;-25
2022/08/25 07:06:36;;;;;;;17.35;15.68;;;20.10;99.90;;;;;;4589196;19;20059;-24
2022/08/25 07:08:07;;;;;;;17.30;15.70;;;20.10;99.90;;;;;;4589281;19;20380;-25
2022/08/25 07:09:38;;;;;;;18.20;16.60;;;20.10;99.90;;;;;;4590092;19;20010;-29
2022/08/25 07:11:10;;;;;;;17.83;16.17;;;20.10;99.90;;;;;;4589198;19;20397;-25
2022/08/25 07:12:41;;;;;;;16.73;15.23;;;20.10;99.90;;;;;;4589882;19;20014;-25
2022/08/25 07:14:13;;;;;;;17.55;16.05;;;20.10;99.90;;;;;;4587738;19;20017;-24
2022/08/25 07:15:44;;;;;;;19.38;17.63;;;20.10;99.90;;;;;;4586654;19;20010;-24
2022/08/25 07:17:16;;;;;;;19.95;18.15;;;20.10;99.90;;;;;;4589164;19;20377;-24
2022/08/25 07:18:47;;;;;;;20.23;18.10;;;20.20;99.90;;;;;;4588867;19;20047;-24
2022/08/25 07:20:18;;;;;;;20.55;18.75;;;20.20;99.90;;;;;;4589796;19;20011;-25
2022/08/25 07:21:51;;;;;;;19.70;17.92;;;20.20;99.90;;;;;;4589946;19;20062;-28
2022/08/25 07:23:22;;;;;;;19.15;17.35;;;20.20;99.90;;;;;;4590330;19;20011;-29
2022/08/25 07:24:54;;;;;;;19.00;17.30;;;20.20;99.90;;;;;;4588484;19;20011;-25
2022/08/25 07:26:26;;;;;;;19.73;18.02;;;20.20;99.90;;;;;;4589912;19;20015;-25
2022/08/25 07:27:57;;;;;;;18.95;17.25;;;20.20;99.90;;;;;;4590014;19;20086;-24
2022/08/25 07:29:31;;;;;;;18.58;16.95;;;20.20;99.90;;;;;;4589997;19;20019;-25
2022/08/25 07:31:03;;;;;;;18.70;17.13;;;20.20;99.90;;;;;;4588610;19;20011;-29
2022/08/25 07:32:34;;;;;;;;;;;20.20;99.90;;;;;;4589705;19;20018;-26
2022/08/25 07:35:56;;;;;;;20.25;18.35;;;20.20;99.90;;;;;;4591444;19;20368;-27
2022/08/25 07:37:27;;;;;;;19.80;18.10;;;20.20;99.90;;;;;;4588389;19;20356;-25
2022/08/25 07:38:58;;;;;;;19.83;18.02;;;20.30;99.90;;;;;;4589152;19;20007;-25
2022/08/25 07:40:31;;;;;;;19.48;17.77;;;20.20;99.90;;;;;;4589244;19;20010;-26
2022/08/25 07:42:04;;;;;;;19.88;18.08;;;20.30;99.90;;;;;;4588974;19;20018;-29
2022/08/25 07:43:35;;;;;;;20.75;18.90;;;20.30;99.90;;;;;;4589141;19;20505;-28
2022/08/25 07:45:09;;;;;;;20.63;18.92;;;20.30;99.90;;;;;;4589364;19;20117;-28
2022/08/25 07:46:40;;;;;;;20.08;18.38;;;20.30;99.90;;;;;;4590073;19;20002;-27
2022/08/25 07:48:11;;;;;;;20.27;18.42;;;20.30;99.90;;;;;;4588350;19;20055;-25
2022/08/25 07:49:42;;;;;;;20.38;18.48;;;20.30;99.90;;;;;;4588282;19;20014;-28
2022/08/25 07:51:14;;;;;;;19.30;17.70;;;20.30;99.90;;;;;;4588903;19;20031;-25
2022/08/25 07:52:46;;;;;;;22.27;20.20;;;20.30;99.90;;;;;;4589251;19;20464;-25
2022/08/25 07:54:19;;;;;;;19.17;17.48;;;20.30;99.90;;;;;;4588719;19;20427;-25
2022/08/25 07:55:51;;;;;;;20.33;18.42;;;20.30;99.90;;;;;;4588227;19;20010;-25
2022/08/25 07:57:25;;;;;;;20.42;18.52;;;20.30;99.90;;;;;;4588748;19;20387;-25
2022/08/25 07:58:56;;;;;;;20.08;18.17;;;20.30;99.90;;;;;;4589856;19;20014;-22
2022/08/25 08:00:29;;;;;;;20.52;18.70;;;20.30;99.90;;;;;;4589181;19;20019;-26
2022/08/25 08:02:00;;;;;;;19.48;17.88;;;20.30;99.90;;;;;;4587945;19;20018;-23
2022/08/25 08:03:33;;;;;;;21.45;19.55;;;20.30;99.90;;;;;;4588035;19;20018;-24
2022/08/25 08:05:05;;;;;;;20.33;18.42;;;20.40;99.90;;;;;;4588923;19;20355;-24
2022/08/25 08:06:37;;;;;;;20.05;18.35;;;20.40;99.90;;;;;;4588171;19;20015;-23
2022/08/25 08:08:08;;;;;;;20.52;18.48;;;20.40;99.90;;;;;;4586872;19;20011;-24
2022/08/25 08:09:39;;;;;;;19.20;17.50;;;20.40;99.90;;;;;;4587257;19;20044;-23